createdAt,value
2019-03-19T00:00:04.726Z,5.10
2019-03-19T00:05:11.458Z,5.10
2019-03-19T00:10:17.085Z,5.10
2019-03-19T00:15:24.851Z,5.10
2019-03-19T00:20:31.366Z,5.10
2019-03-19T00:25:37.895Z,5.10
2019-03-19T00:30:42.648Z,5.10
2019-03-19T00:35:47.461Z,5.10
2019-03-19T00:40:55.429Z,5.00
2019-03-19T00:46:00.558Z,5.00
2019-03-19T00:51:05.418Z,5.00
2019-03-19T00:56:11.989Z,5.00
2019-03-19T01:01:18.022Z,4.90
2019-03-19T01:06:22.930Z,5.00
2019-03-19T01:11:30.111Z,5.00
2019-03-19T01:16:36.792Z,5.00
2019-03-19T01:21:41.583Z,5.10
2019-03-19T01:26:49.608Z,5.00
2019-03-19T01:31:56.925Z,4.90
2019-03-19T01:37:01.641Z,4.90
2019-03-19T01:42:07.609Z,4.90
2019-03-19T01:47:12.630Z,4.80
2019-03-19T01:52:18.574Z,4.80
2019-03-19T01:57:24.262Z,4.80
2019-03-19T02:02:29.053Z,4.70
2019-03-19T02:07:33.726Z,4.70
2019-03-19T02:12:38.484Z,4.70
2019-03-19T02:17:44.717Z,4.60
2019-03-19T02:22:52.970Z,4.60
2019-03-19T02:27:57.687Z,4.50
2019-03-19T02:33:02.515Z,4.50
2019-03-19T02:38:07.938Z,4.50
2019-03-19T02:43:12.676Z,4.40
2019-03-19T02:48:17.740Z,4.40
2019-03-19T02:53:22.493Z,4.30
2019-03-19T02:58:27.253Z,4.30
2019-03-19T03:03:32.233Z,4.20
2019-03-19T03:08:38.957Z,4.20
2019-03-19T03:13:43.630Z,4.20
2019-03-19T03:18:48.639Z,4.20
2019-03-19T03:23:53.305Z,4.10
2019-03-19T03:29:04.393Z,4.10
2019-03-19T03:34:05.751Z,4.00
2019-03-19T03:39:10.500Z,4.00
2019-03-19T03:44:15.196Z,3.90
2019-03-19T03:49:19.853Z,3.80
2019-03-19T03:54:25.785Z,3.80
2019-03-19T03:59:30.504Z,3.80
2019-03-19T04:04:35.581Z,3.80
2019-03-19T04:09:41.894Z,3.70
2019-03-19T04:14:47.038Z,3.60
2019-03-19T04:19:52.293Z,3.50
2019-03-19T04:24:57.134Z,3.50
2019-03-19T04:30:01.954Z,3.40
2019-03-19T04:35:07.533Z,3.40
2019-03-19T04:40:13.583Z,3.30
2019-03-19T04:45:18.900Z,3.30
2019-03-19T04:50:23.689Z,3.30
2019-03-19T04:55:29.351Z,3.30
2019-03-19T05:00:34.605Z,3.30
2019-03-19T05:05:39.372Z,3.20
2019-03-19T05:10:44.292Z,3.20
2019-03-19T05:15:49.229Z,3.20
2019-03-19T05:20:55.210Z,3.20
2019-03-19T05:26:00.168Z,3.20
2019-03-19T05:31:06.852Z,3.10
2019-03-19T05:36:13.039Z,3.10
2019-03-19T05:41:20.652Z,3.10
2019-03-19T05:46:26.048Z,3.10
2019-03-19T05:51:31.065Z,3.10
2019-03-19T05:56:36.776Z,3.00
2019-03-19T06:01:41.721Z,3.00
2019-03-19T06:06:47.232Z,3.00
2019-03-19T06:11:54.376Z,3.00
2019-03-19T06:16:59.041Z,2.90
2019-03-19T06:22:05.198Z,2.90
2019-03-19T06:27:10.154Z,3.00
2019-03-19T06:32:15.130Z,3.00
2019-03-19T06:37:22.149Z,3.00
2019-03-19T06:42:28.347Z,3.00
2019-03-19T06:47:54.578Z,3.10
2019-03-19T06:53:08.337Z,3.10
2019-03-19T06:58:13.013Z,3.30
2019-03-19T07:03:19.565Z,3.40
2019-03-19T07:08:26.116Z,3.50
2019-03-19T07:13:31.142Z,3.70
2019-03-19T07:18:36.807Z,3.80
2019-03-19T07:23:41.526Z,4.00
2019-03-19T07:28:46.202Z,4.30
2019-03-19T07:33:51.240Z,4.50
2019-03-19T07:38:57.168Z,4.80
2019-03-19T07:44:05.453Z,5.10
2019-03-19T07:49:11.489Z,5.30
2019-03-19T07:54:19.755Z,5.50
2019-03-19T07:59:25.307Z,5.80
2019-03-19T08:04:30.250Z,6.00
2019-03-19T08:09:35.273Z,6.30
2019-03-19T08:14:39.998Z,6.50
2019-03-19T08:19:45.513Z,6.70
2019-03-19T08:24:50.448Z,6.90
2019-03-19T08:29:56.118Z,7.20
2019-03-19T08:35:01.413Z,7.40
2019-03-19T08:40:07.801Z,7.60
2019-03-19T08:45:14.880Z,7.80
2019-03-19T08:50:19.845Z,8.10
2019-03-19T08:55:24.497Z,8.20
2019-03-19T09:00:30.097Z,8.40
2019-03-19T09:05:35.018Z,8.60
2019-03-19T09:10:39.744Z,8.70
2019-03-19T09:15:44.525Z,8.90
2019-03-19T09:20:49.233Z,9.10
2019-03-19T09:25:57.397Z,9.20
2019-03-19T09:31:06.221Z,9.50
2019-03-19T09:36:11.023Z,9.60
2019-03-19T09:41:15.715Z,9.70
2019-03-19T09:46:20.439Z,9.90
2019-03-19T09:51:25.404Z,10.10
2019-03-19T09:56:31.047Z,10.10
2019-03-19T10:01:37.809Z,10.10
2019-03-19T10:06:42.609Z,10.10
2019-03-19T10:11:47.619Z,10.00
2019-03-19T10:16:53.581Z,10.00
2019-03-19T10:21:58.630Z,10.10
2019-03-19T10:27:03.582Z,10.20
2019-03-19T10:32:08.549Z,10.20
2019-03-19T10:37:14.495Z,10.20
2019-03-19T10:42:19.429Z,10.10
2019-03-19T10:47:31.451Z,9.90
2019-03-19T10:52:39.150Z,10.00
2019-03-19T10:57:45.645Z,10.10
2019-03-19T11:02:50.555Z,10.40
2019-03-19T11:07:56.135Z,10.60
2019-03-19T11:13:00.906Z,10.60
2019-03-19T11:18:06.794Z,10.60
2019-03-19T11:23:11.735Z,10.60
2019-03-19T11:28:18.050Z,10.60
2019-03-19T11:33:24.167Z,10.70
2019-03-19T11:38:29.477Z,10.90
2019-03-19T11:43:34.848Z,11.10
2019-03-19T11:48:41.330Z,11.20
2019-03-19T11:53:46.576Z,11.30
2019-03-19T11:58:52.935Z,11.40
2019-03-19T12:03:59.254Z,11.50
2019-03-19T12:09:04.877Z,11.50
2019-03-19T12:14:09.610Z,11.50
2019-03-19T12:19:16.336Z,11.40
2019-03-19T12:24:21.134Z,11.40
2019-03-19T12:29:26.085Z,11.30
2019-03-19T12:34:31.234Z,11.30
2019-03-19T12:39:40.110Z,11.40
2019-03-19T12:44:45.395Z,11.50
2019-03-19T12:49:50.527Z,11.60
2019-03-19T12:54:56.250Z,11.70
2019-03-19T13:00:02.091Z,11.80
2019-03-19T13:05:07.575Z,11.90
2019-03-19T13:10:17.557Z,11.90
2019-03-19T13:15:23.434Z,12.10
2019-03-19T13:20:36.025Z,12.20
2019-03-19T13:25:41.482Z,12.30
2019-03-19T13:30:48.160Z,12.40
2019-03-19T13:35:53.172Z,12.40
2019-03-19T13:40:59.434Z,12.40
2019-03-19T13:46:06.719Z,12.50
2019-03-19T13:51:11.731Z,12.50
2019-03-19T13:56:16.984Z,12.50
2019-03-19T14:01:22.797Z,12.50
2019-03-19T14:06:27.796Z,12.60
2019-03-19T14:11:34.362Z,12.70
2019-03-19T14:16:39.113Z,12.90
2019-03-19T14:21:43.934Z,13.30
2019-03-19T14:26:59.215Z,13.60
2019-03-19T14:32:04.187Z,13.90
2019-03-19T14:37:09.482Z,14.20
2019-03-19T14:42:16.276Z,14.40
2019-03-19T14:47:21.282Z,14.60
2019-03-19T14:52:39.048Z,14.70
2019-03-19T14:57:43.839Z,14.80
2019-03-19T15:02:48.665Z,15.00
2019-03-19T15:08:00.272Z,15.20
2019-03-19T15:13:05.514Z,15.30
2019-03-19T15:18:10.714Z,15.30
2019-03-19T15:23:17.055Z,15.10
2019-03-19T15:28:21.929Z,15.00
2019-03-19T15:33:28.406Z,14.80
2019-03-19T15:38:36.461Z,14.70
2019-03-19T15:43:41.762Z,14.70
2019-03-19T15:48:50.962Z,14.70
2019-03-19T15:53:55.640Z,14.70
2019-03-19T15:59:00.394Z,14.70
2019-03-19T16:04:05.483Z,14.60
2019-03-19T16:09:10.399Z,14.50
2019-03-19T16:14:15.138Z,14.30
2019-03-19T16:19:19.921Z,14.20
2019-03-19T16:24:26.566Z,14.10
2019-03-19T16:29:33.150Z,14.00
2019-03-19T16:34:43.438Z,13.80
2019-03-19T16:39:48.445Z,13.70
2019-03-19T16:44:53.315Z,13.60
2019-03-19T16:49:59.778Z,13.50
2019-03-19T16:55:05.076Z,13.40
2019-03-19T17:00:15.716Z,13.30
2019-03-19T18:19:38.267Z,11.50
2019-03-19T18:24:43.566Z,11.30
2019-03-19T18:29:56.044Z,11.00
2019-03-19T18:46:33.071Z,11.00
2019-03-19T18:51:37.937Z,10.90
2019-03-19T18:56:43.043Z,10.70
2019-03-19T19:01:50.065Z,10.50
2019-03-19T19:06:56.084Z,10.30
2019-03-19T19:12:01.068Z,10.10
2019-03-19T19:17:06.189Z,9.90
2019-03-19T19:22:12.279Z,9.80
2019-03-19T19:27:17.972Z,9.60
2019-03-19T19:32:23.091Z,9.50
2019-03-19T19:37:27.781Z,9.50
2019-03-19T19:42:34.206Z,9.30
2019-03-19T19:47:42.317Z,9.10
2019-03-19T19:52:51.619Z,9.00
2019-03-19T19:57:57.511Z,8.80
2019-03-19T20:03:12.130Z,8.70
2019-03-19T20:08:12.499Z,8.60
2019-03-19T20:13:18.346Z,8.40
2019-03-19T20:18:24.589Z,8.30
2019-03-19T20:23:29.522Z,8.20
2019-03-19T20:28:35.782Z,8.10
2019-03-19T20:33:41.553Z,8.00
2019-03-19T20:38:48.088Z,8.00
2019-03-19T20:43:54.724Z,7.90
2019-03-19T20:48:59.642Z,7.80
2019-03-19T20:54:04.971Z,7.80
2019-03-19T20:59:10.037Z,7.70
2019-03-19T21:04:15.257Z,7.60
2019-03-19T21:09:20.142Z,7.60
2019-03-19T21:14:25.025Z,7.50
2019-03-19T21:19:29.977Z,7.40
2019-03-19T21:24:36.849Z,7.30
2019-03-19T21:29:41.760Z,7.20
2019-03-19T21:34:46.814Z,7.10
2019-03-19T21:39:52.161Z,7.00
2019-03-19T21:44:57.277Z,6.90
2019-03-19T21:50:03.887Z,6.80
2019-03-19T21:55:14.782Z,6.70
2019-03-19T22:00:19.753Z,6.70
2019-03-19T22:05:25.869Z,6.60
2019-03-19T22:10:32.190Z,6.50
2019-03-19T22:15:37.772Z,6.50
2019-03-19T22:20:42.849Z,6.40
2019-03-19T22:25:47.691Z,6.30
2019-03-19T22:30:52.341Z,6.30
2019-03-19T22:35:59.822Z,6.20
2019-03-19T22:41:04.565Z,6.10
2019-03-19T22:46:09.589Z,6.10
2019-03-19T22:51:14.367Z,6.00
2019-03-19T22:56:19.669Z,5.90
2019-03-19T23:01:27.079Z,5.90
2019-03-19T23:06:32.259Z,5.80
2019-03-19T23:11:38.151Z,5.70
2019-03-19T23:16:43.391Z,5.60
2019-03-19T23:21:49.099Z,5.40
2019-03-19T23:26:54.354Z,5.30
2019-03-19T23:32:00.377Z,5.20
2019-03-19T23:37:05.409Z,5.20
2019-03-19T23:42:10.192Z,5.10
2019-03-19T23:47:15.526Z,5.10
2019-03-19T23:52:21.835Z,5.10
2019-03-19T23:57:26.653Z,5.00
